FW6990 Weather Reports


Display with metric or nautical units.
time (UTC)temp
F
wind
direction
speed
MPH
gust
MPH
rain 1hr
in
rain 24hr
in
rain mn
in
humidity
%
barometer
mb
20210615010535 77 313 4.0 6.0 0.00 0.00 0.00 80 1008.2
20210615010033 77 278 2.0 2.0 0.00 0.00 0.00 80 1007.1
20210615005532 77 258 0.0 0.0 0.00 0.00 0.00 80 1006.7
20210615005031 77 211 0.0 1.0 0.00 0.00 0.00 80 1006.8
20210615004526 77 207 0.0 0.0 0.00 0.00 0.00 79 1006.6
20210615004024 77 292 0.0 0.0 0.00 0.00 0.00 79 1007.2
20210615003521 77 290 0.0 0.0 0.00 0.00 0.00 78 1006.6
20210615003017 77 241 0.0 1.0 0.00 0.00 0.00 78 1006.7
20210615002512 78 232 0.0 0.0 0.00 0.00 0.00 78 1006.9
20210615002006 78 192 0.0 0.0 0.00 0.00 0.00 78 1006.9
20210615001500 78 170 1.0 1.0 0.00 0.00 0.00 77 1007.0
20210615000958 78 207 0.0 0.0 0.00 0.00 0.00 77 1006.8
20210615000457 78 143 1.0 1.0 0.00 0.00 0.00 76 1006.7
20210614235955 79 186 0.0 1.0 0.00 0.00 0.00 75 1006.8
20210614235453 79 177 1.0 1.0 0.00 0.00 0.00 75 1007.0
20210614234947 79 200 2.0 2.0 0.00 0.00 0.00 74 1007.1
20210614234442 79 173 1.0 1.0 0.00 0.00 0.00 75 1007.0
20210614233937 80 174 0.0 0.0 0.00 0.00 0.00 74 1007.0
20210614233437 80 240 1.0 2.0 0.00 0.00 0.00 73 1007.0
20210614232933 80 185 2.0 2.0 0.00 0.00 0.00 72 1006.8
20210614232425 81 222 0.0 0.0 0.00 0.00 0.00 71 1006.7
20210614231924 80 245 0.0 1.0 0.00 0.00 0.00 71 1006.9
20210614231421 80 191 0.0 1.0 0.00 0.00 0.00 71 1007.1
20210614230914 80 219 1.0 1.0 0.00 0.00 0.00 70 1007.0
20210614230413 80 207 0.0 0.0 0.00 0.00 0.00 70 1007.2
20210614225907 81 265 1.0 1.0 0.00 0.00 0.00 69 1006.9
20210614225401 81 201 0.0 0.0 0.00 0.00 0.00 70 1007.3
20210614224900 82 203 1.0 1.0 0.00 0.00 0.00 69 1007.2
20210614224358 82 220 0.0 0.0 0.00 0.00 0.00 69 1007.0
20210614223857 82 289 0.0 0.0 0.00 0.00 0.00 68 1007.1
20210614223354 82 147 1.0 2.0 0.00 0.00 0.00 68 1007.1
20210614222847 83 135 0.0 1.0 0.00 0.00 0.00 67 1007.2
20210614222344 82 257 0.0 1.0 0.00 0.00 0.00 68 1007.3
20210614221842 82 105 1.0 1.0 0.00 0.00 0.00 67 1007.1
20210614221334 82 162 0.0 0.0 0.00 0.00 0.00 67 1007.4
20210614220832 82 162 0.0 1.0 0.00 0.00 0.00 67 1007.4
20210614220329 83 272 1.0 1.0 0.00 0.00 0.00 65 1007.6
20210614215827 83 148 0.0 0.0 0.00 0.00 0.00 65 1007.6
20210614215324 83 241 0.0 0.0 0.00 0.00 0.00 64 1007.8
20210614214818 84 289 2.0 2.0 0.00 0.00 0.00 63 1007.6
20210614214317 85 285 1.0 1.0 0.00 0.00 0.00 62 1007.6
20210614213809 84 321 0.0 0.0 0.00 0.00 0.00 64 1007.5
20210614213308 84 311 1.0 1.0 0.00 0.00 0.00 62 1007.6
20210614212803 82 332 0.0 0.0 0.00 0.00 0.00 66 1007.5
20210614212257 83 190 1.0 1.0 0.00 0.00 0.00 65 1007.7
20210614211756 83 290 1.0 1.0 0.00 0.00 0.00 64 1007.6
20210614211254 84 261 0.0 0.0 0.00 0.00 0.00 62 1007.7
20210614210748 85 294 2.0 3.0 0.00 0.00 0.00 61 1007.7
20210614210242 84 236 1.0 2.0 0.00 0.00 0.00 63 1007.7
20210614205740 85 262 1.0 2.0 0.00 0.00 0.00 62 1007.6
20210614205233 85 274 0.0 1.0 0.00 0.00 0.00 64 1007.7
20210614204728 84 268 1.0 1.0 0.00 0.00 0.00 65 1007.7
20210614204227 85 247 1.0 1.0 0.00 0.00 0.00 61 1007.8
20210614203723 83 234 1.0 2.0 0.00 0.00 0.00 65 1007.8
20210614203218 82 298 0.0 1.0 0.00 0.00 0.00 67 1007.9
20210614202712 82 292 0.0 1.0 0.00 0.00 0.00 68 1007.9
20210614202203 82 214 0.0 0.0 0.00 0.00 0.00 64 1008.0
20210614201703 84 179 1.0 1.0 0.00 0.00 0.00 65 1007.9
20210614201159 83 174 1.0 1.0 0.00 0.00 0.00 64 1008.1
20210614200653 82 259 1.0 2.0 0.00 0.00 0.00 66 1008.0
20210614200145 83 162 1.0 1.0 0.00 0.00 0.00 65 1008.0
20210614195643 82 300 0.0 0.0 0.00 0.00 0.00 66 1008.1
20210614195140 82 279 0.0 1.0 0.00 0.00 0.00 65 1008.1
20210614194635 82 261 0.0 0.0 0.00 0.00 0.00 67 1008.3
20210614194132 83 173 2.0 3.0 0.00 0.00 0.00 65 1008.3
20210614193631 83 278 1.0 2.0 0.00 0.00 0.00 64 1008.3
20210614193126 82 301 0.0 0.0 0.00 0.00 0.00 66 1008.2
20210614192623 82 264 0.0 1.0 0.00 0.00 0.00 70 1008.3
20210614192121 81 181 0.0 0.0 0.00 0.00 0.00 67 1008.4
20210614191620 81 244 2.0 2.0 0.00 0.00 0.00 68 1008.4
20210614191115 80 227 1.0 1.0 0.00 0.00 0.00 67 1008.8
20210614190611 80 200 0.0 1.0 0.00 0.00 0.00 71 1009.0
20210614190109 80 257 0.0 1.0 0.00 0.00 0.00 68 1008.8
20210614185603 80 182 3.0 3.0 0.00 0.00 0.00 68 1008.8
20210614185058 80 275 3.0 5.0 0.00 0.00 0.00 68 1008.8
20210614184552 80 286 1.0 1.0 0.00 0.00 0.00 69 1009.0
20210614184050 80 245 1.0 1.0 0.00 0.00 0.00 69 1009.0
20210614183546 80 209 0.0 1.0 0.00 0.00 0.00 71 1009.2
20210614183040 80 177 1.0 1.0 0.00 0.00 0.00 69 1009.0
20210614182539 80 282 1.0 1.0 0.00 0.00 0.00 69 1008.9
20210614182033 80 300 2.0 2.0 0.00 0.00 0.00 67 1009.3
20210614181533 80 242 0.0 1.0 0.00 0.00 0.00 68 1009.1
20210614181029 80 266 2.0 2.0 0.00 0.00 0.00 68 1009.2
20210614180524 79 187 1.0 2.0 0.00 0.00 0.00 70 1009.5
20210614180022 79 258 1.0 1.0 0.00 0.00 0.00 72 1009.4
20210614175516 79 285 3.0 5.0 0.00 0.00 0.00 70 1009.4
20210614175013 80 318 4.0 6.0 0.00 0.00 0.00 69 1009.5
20210614174508 80 260 2.0 3.0 0.00 0.00 0.00 70 1009.7
20210614174005 79 294 1.0 2.0 0.00 0.00 0.00 70 1009.7
20210614173502 79 332 3.0 3.0 0.00 0.00 0.00 69 1009.8
20210614172958 80 317 1.0 1.0 0.00 0.00 0.00 71 1009.8
20210614172453 79 281 0.0 0.0 0.00 0.00 0.00 71 1009.9
20210614171950 80 318 5.0 7.0 0.00 0.00 0.00 68 1009.9
20210614171447 80 182 2.0 2.0 0.00 0.00 0.00 69 1010.1
20210614170942 79 263 1.0 1.0 0.00 0.00 0.00 71 1010.1
20210614170438 79 189 3.0 5.0 0.00 0.00 0.00 70 1010.5
20210614165935 78 301 1.0 1.0 0.00 0.00 0.00 71 1010.6
20210614165433 78 247 4.0 6.0 0.00 0.00 0.00 72 1010.4
20210614164931 78 292 2.0 2.0 0.00 0.00 0.00 71 1010.5
20210614164428 78 252 2.0 2.0 0.00 0.00 0.00 70 1010.4
20210614163927 79 210 1.0 2.0 0.00 0.00 0.00 71 1010.4
20210614163423 78 198 2.0 2.0 0.00 0.00 0.00 72 1010.5
20210614162920 78 187 2.0 2.0 0.00 0.00 0.00 71 1010.7
20210614162416 78 269 1.0 2.0 0.00 0.00 0.00 71 1010.6
20210614161912 77 239 2.0 2.0 0.00 0.00 0.00 72 1010.7
20210614161402 78 269 0.0 0.0 0.00 0.00 0.00 71 1010.6
20210614160858 77 192 0.0 0.0 0.00 0.00 0.00 72 1011.0
20210614160353 78 192 2.0 3.0 0.00 0.00 0.00 72 1010.9
20210614155851 78 152 1.0 1.0 0.00 0.00 0.00 70 1010.6
20210614155349 78 298 1.0 2.0 0.00 0.00 0.00 70 1010.9
20210614154842 78 243 0.0 0.0 0.00 0.00 0.00 71 1010.8
20210614154338 78 253 1.0 1.0 0.00 0.00 0.00 69 1010.9
20210614153836 77 281 0.0 1.0 0.00 0.00 0.00 72 1010.9
20210614153332 76 309 3.0 3.0 0.00 0.00 0.00 71 1010.9
20210614152819 75 9 2.0 3.0 0.00 0.00 0.00 72 1011.0
20210614152313 76 337 2.0 2.0 0.00 0.00 0.00 72 1011.1
20210614151812 76 192 1.0 2.0 0.00 0.00 0.00 72 1010.9
20210614151308 77 196 1.0 1.0 0.00 0.00 0.00 70 1011.2
20210614150805 77 251 0.0 0.0 0.00 0.00 0.00 73 1011.1
20210614150301 77 186 3.0 3.0 0.00 0.00 0.00 69 1011.3
20210614145757 75 190 0.0 1.0 0.00 0.00 0.00 73 1011.1
20210614145252 75 186 1.0 1.0 0.00 0.00 0.00 74 1011.1
20210614144748 74 187 1.0 1.0 0.00 0.00 0.00 76 1011.0
20210614144244 74 246 1.0 1.0 0.00 0.00 0.00 75 1011.0
20210614143736 74 245 1.0 1.0 0.00 0.00 0.00 74 1011.0
20210614143233 73 256 0.0 1.0 0.00 0.00 0.00 75 1011.0
20210614142731 73 257 1.0 1.0 0.00 0.00 0.00 75 1011.1
20210614142231 73 224 0.0 1.0 0.00 0.00 0.00 75 1011.1
20210614141721 73 49 0.0 0.0 0.00 0.00 0.00 75 1010.9
20210614141218 73 204 0.0 1.0 0.00 0.00 0.00 76 1011.2
20210614140716 72 225 0.0 1.0 0.00 0.00 0.00 78 1011.1
20210614140215 72 172 0.0 0.0 0.00 0.00 0.00 77 1011.1
20210614135701 72 90 1.0 1.0 0.00 0.00 0.00 77 1011.2
20210614135159 72 211 0.0 0.0 0.00 0.00 0.00 77 1011.2
20210614134657 72 235 0.0 0.0 0.00 0.00 0.00 78 1011.1
20210614134155 72 210 0.0 1.0 0.00 0.00 0.00 77 1011.4
20210614133655 71 229 1.0 1.0 0.00 0.00 0.00 79 1011.5
20210614133150 70 176 0.0 1.0 0.00 0.00 0.00 80 1011.6
20210614132643 70 73 1.0 2.0 0.00 0.00 0.00 80 1011.3
20210614132140 70 241 0.0 0.0 0.00 0.00 0.00 80 1011.3
20210614131635 69 180 0.0 1.0 0.00 0.00 0.00 80 1011.4
20210614131133 70 186 0.0 0.0 0.00 0.00 0.00 81 1011.4
20210614130628 70 163 0.0 0.0 0.00 0.00 0.00 81 1011.4
20210614130122 70 178 0.0 1.0 0.00 0.00 0.00 81 1011.1
20210614125616 69 189 0.0 1.0 0.00 0.00 0.00 82 1011.2
20210614125114 69 178 0.0 0.0 0.00 0.00 0.00 82 1011.4
20210614124608 69 220 0.0 0.0 0.00 0.00 0.00 82 1011.5
20210614124104 69 286 0.0 0.0 0.00 0.00 0.00 83 1011.5
20210614123600 69 359 0.0 0.0 0.00 0.00 0.00 83 1011.4
20210614123058 69 250 0.0 0.0 0.00 0.00 0.00 84 1011.5
20210614122553 69 240 1.0 2.0 0.00 0.00 0.00 83 1011.5
20210614122049 69 190 1.0 2.0 0.00 0.00 0.00 84 1011.1
20210614121545 69 211 0.0 1.0 0.00 0.00 0.00 84 1011.4
20210614121043 69 183 0.0 1.0 0.00 0.00 0.00 84 1011.2
20210614120542 69 291 0.0 1.0 0.00 0.00 0.00 84 1011.2
20210614120042 69 237 0.0 0.0 0.00 0.00 0.00 85 1011.4
20210614115533 68 191 0.0 0.0 0.00 0.00 0.00 86 1011.3
20210614115023 68 296 0.0 1.0 0.00 0.00 0.00 86 1011.4
20210614114522 68 213 0.0 0.0 0.00 0.00 0.00 88 1011.3
20210614114019 67 212 0.0 0.0 0.00 0.00 0.00 88 1011.5
20210614113520 67 195 0.0 0.0 0.00 0.00 0.00 88 1011.5
20210614113017 67 194 0.0 0.0 0.00 0.00 0.00 88 1011.4
20210614112516 66 194 0.0 0.0 0.00 0.00 0.00 88 1011.6
20210614112011 66 272 0.0 0.0 0.00 0.00 0.00 88 1011.8
20210614111507 66 256 0.0 0.0 0.00 0.00 0.00 89 1011.7
20210614111004 66 256 0.0 0.0 0.00 0.00 0.00 89 1011.5
20210614110454 66 257 0.0 0.0 0.00 0.00 0.00 89 1011.7
20210614105951 66 270 0.0 0.0 0.00 0.00 0.00 90 1011.7
20210614105446 66 295 0.0 0.0 0.00 0.00 0.00 90 1011.6
20210614104942 66 295 0.0 0.0 0.00 0.00 0.00 90 1011.7
20210614104440 66 295 0.0 0.0 0.00 0.00 0.00 91 1011.7
20210614103935 65 295 0.0 0.0 0.00 0.00 0.00 91 1011.6
20210614103434 65 295 0.0 0.0 0.00 0.00 0.00 91 1011.6
20210614102929 65 218 0.0 0.0 0.00 0.00 0.00 92 1011.5
20210614102425 65 236 0.0 0.0 0.00 0.00 0.00 92 1011.6
20210614101921 65 236 0.0 0.0 0.00 0.00 0.00 92 1011.6
20210614101415 65 236 0.0 0.0 0.00 0.00 0.00 92 1011.6
20210614100915 65 236 0.0 0.0 0.00 0.00 0.00 91 1011.6
20210614100405 65 236 0.0 0.0 0.00 0.00 0.00 91 1011.5
20210614095902 65 236 0.0 0.0 0.00 0.00 0.00 91 1011.4
20210614095356 65 236 0.0 0.0 0.00 0.00 0.00 90 1011.7
20210614094849 65 235 0.0 0.0 0.00 0.00 0.00 90 1011.6
20210614094345 65 236 0.0 0.0 0.00 0.00 0.00 90 1011.6
20210614093845 65 297 0.0 0.0 0.00 0.00 0.00 90 1011.7
20210614093340 65 296 0.0 0.0 0.00 0.00 0.00 90 1011.8
20210614092837 65 341 0.0 0.0 0.00 0.00 0.00 90 1011.5
20210614092333 65 342 0.0 0.0 0.00 0.00 0.00 90 1011.6
20210614091830 65 342 0.0 0.0 0.00 0.00 0.00 90 1011.8
20210614091325 65 342 0.0 0.0 0.00 0.00 0.00 90 1012.0
20210614090824 65 342 0.0 0.0 0.00 0.00 0.00 90 1012.0
20210614090319 65 342 0.0 0.0 0.00 0.00 0.00 90 1011.8
20210614085811 65 342 0.0 0.0 0.00 0.00 0.00 90 1011.7
20210614085310 65 342 0.0 0.0 0.00 0.00 0.00 90 1011.9
20210614084806 65 342 0.0 0.0 0.00 0.00 0.00 90 1011.7
20210614084301 65 342 0.0 0.0 0.00 0.00 0.00 90 1011.6
20210614083759 65 342 0.0 0.0 0.00 0.00 0.00 90 1011.6
20210614083259 65 342 0.0 0.0 0.00 0.00 0.00 90 1011.7
20210614082755 65 342 0.0 0.0 0.00 0.00 0.00 90 1011.6
20210614082253 64 342 0.0 0.0 0.00 0.00 0.00 90 1011.6
20210614081750 64 341 0.0 1.0 0.00 0.00 0.00 90 1011.3
20210614081248 64 4 0.0 0.0 0.00 0.00 0.00 90 1011.3
20210614080744 64 344 0.0 0.0 0.00 0.00 0.00 90 1011.4
20210614080241 64 343 0.0 0.0 0.00 0.00 0.00 90 1011.2
20210614075736 64 345 0.0 0.0 0.00 0.00 0.00 90 1011.3
20210614075232 64 335 1.0 1.0 0.00 0.00 0.00 90 1011.2
20210614074727 64 265 2.0 3.0 0.00 0.00 0.00 91 1010.5
20210614074225 64 159 0.0 0.0 0.00 0.00 0.00 91 1009.9
20210614073721 64 94 0.0 1.0 0.00 0.00 0.00 91 1010.2
20210614073215 64 143 0.0 1.0 0.00 0.00 0.00 91 1010.3
20210614072714 64 77 0.0 0.0 0.00 0.00 0.00 90 1010.6
20210614072210 64 102 0.0 1.0 0.00 0.00 0.00 90 1010.7
20210614071702 64 270 0.0 0.0 0.00 0.00 0.00 90 1010.6
20210614071200 64 198 0.0 1.0 0.00 0.00 0.00 90 1010.9
20210614070658 64 200 1.0 1.0 0.00 0.00 0.00 90 1010.7
20210614070154 64 182 1.0 1.0 0.00 0.00 0.00 89 1011.1
20210614065647 64 190 1.0 1.0 0.00 0.00 0.00 89 1011.6
20210614065136 64 256 0.0 1.0 0.00 0.00 0.00 89 1011.8
20210614064635 64 319 0.0 0.0 0.00 0.00 0.00 89 1011.7
20210614064135 64 319 0.0 0.0 0.00 0.00 0.00 89 1012.0
20210614063628 64 312 0.0 0.0 0.00 0.00 0.00 89 1011.9
20210614063127 64 311 0.0 0.0 0.00 0.00 0.00 88 1011.9
20210614062622 64 311 0.0 0.0 0.00 0.00 0.00 88 1011.9
20210614062119 65 311 0.0 0.0 0.00 0.00 0.00 88 1012.2
20210614061616 65 311 0.0 0.0 0.00 0.00 0.00 88 1012.3
20210614061111 65 312 0.0 0.0 0.00 0.00 0.00 88 1012.4
20210614060606 65 311 0.0 0.0 0.00 0.00 0.00 87 1012.4
20210614060100 65 311 0.0 0.0 0.00 0.00 0.00 86 1012.4
20210614055556 65 311 0.0 0.0 0.00 0.00 0.00 86 1012.6
20210614055054 66 312 0.0 0.0 0.00 0.00 0.00 85 1012.4
20210614054552 66 301 0.0 0.0 0.00 0.00 0.00 85 1012.5
20210614054052 66 268 0.0 0.0 0.00 0.00 0.00 85 1012.4
20210614053547 66 171 0.0 0.0 0.00 0.00 0.00 85 1012.1
20210614053045 66 343 0.0 0.0 0.00 0.00 0.00 85 1012.5
20210614052544 66 343 0.0 0.0 0.00 0.00 0.00 85 1012.5
20210614052039 66 342 0.0 0.0 0.00 0.00 0.00 85 1012.6
20210614051534 66 342 0.0 0.0 0.00 0.00 0.00 85 1012.7
20210614051022 66 342 0.0 0.0 0.00 0.00 0.00 85 1012.5
20210614050519 66 342 0.0 0.0 0.00 0.00 0.00 85 1012.8
20210614050016 66 342 0.0 0.0 0.00 0.00 0.00 85 1013.0
20210614045513 66 342 0.0 0.0 0.00 0.00 0.00 85 1013.1
20210614045008 66 342 0.0 0.0 0.00 0.00 0.00 84 1013.1
20210614044505 66 220 0.0 0.0 0.00 0.00 0.00 84 1013.0
20210614044002 66 220 0.0 0.0 0.00 0.00 0.00 83 1012.8
20210614043500 66 220 0.0 0.0 0.00 0.00 0.00 83 1012.7
20210614043000 66 220 0.0 0.0 0.00 0.00 0.00 82 1012.9
20210614042453 66 220 0.0 0.0 0.00 0.00 0.00 82 1012.8
20210614041948 66 4 0.0 0.0 0.00 0.00 0.00 82 1012.9
20210614041446 67 4 0.0 0.0 0.00 0.00 0.00 81 1013.0
20210614040939 67 193 0.0 0.0 0.00 0.00 0.00 81 1012.8
20210614040438 67 194 0.0 0.0 0.00 0.00 0.00 81 1012.9
20210614035932 67 288 0.0 0.0 0.00 0.00 0.00 81 1013.4
20210614035427 67 290 0.0 1.0 0.00 0.00 0.00 80 1013.2
20210614034923 67 251 0.0 0.0 0.00 0.00 0.00 81 1013.4
20210614034421 67 249 0.0 0.0 0.00 0.00 0.00 81 1013.1
20210614033917 67 331 0.0 0.0 0.00 0.00 0.00 81 1013.2
20210614033413 67 289 0.0 0.0 0.00 0.00 0.00 81 1013.2
20210614032913 67 228 0.0 0.0 0.00 0.00 0.00 80 1013.2
20210614032410 67 178 0.0 0.0 0.00 0.00 0.00 80 1013.0
20210614031859 67 211 0.0 0.0 0.00 0.00 0.00 80 1013.1
20210614031357 67 274 0.0 1.0 0.00 0.00 0.00 80 1013.1
20210614030852 66 275 0.0 1.0 0.00 0.00 0.00 80 1013.1
20210614030349 67 287 0.0 0.0 0.00 0.00 0.00 80 1012.8
20210614025841 67 265 0.0 0.0 0.00 0.00 0.00 80 1012.7
20210614025338 67 332 0.0 1.0 0.00 0.00 0.00 79 1012.7
20210614024831 67 217 0.0 0.0 0.00 0.00 0.00 79 1012.9
20210614024322 67 217 0.0 0.0 0.00 0.00 0.00 78 1012.9
20210614023818 67 217 0.0 0.0 0.00 0.00 0.00 78 1013.1
20210614023316 68 229 0.0 0.0 0.00 0.00 0.00 77 1013.3
20210614022815 68 279 0.0 0.0 0.00 0.00 0.00 78 1013.4
20210614022310 68 312 0.0 0.0 0.00 0.00 0.00 77 1013.2
20210614021808 68 318 0.0 0.0 0.00 0.00 0.00 77 1013.2
20210614021306 68 282 0.0 0.0 0.00 0.00 0.00 77 1013.1
20210614020802 68 290 0.0 0.0 0.00 0.00 0.00 77 1013.1
20210614020257 68 261 0.0 0.0 0.00 0.00 0.00 78 1013.4
20210614015754 68 260 0.0 0.0 0.00 0.00 0.00 77 1013.2
20210614015253 68 261 0.0 0.0 0.00 0.00 0.00 77 1013.4
20210614014733 68 4 0.0 0.0 0.00 0.00 0.00 77 1013.2
20210614014229 68 176 0.0 0.0 0.00 0.00 0.00 77 1013.1
20210614013729 68 180 1.0 1.0 0.00 0.00 0.00 77 1013.1
20210614013229 68 247 0.0 0.0 0.00 0.00 0.00 77 1013.1
20210614012724 68 190 0.0 0.0 0.00 0.00 0.00 77 1013.0
20210614012218 68 279 0.0 1.0 0.00 0.00 0.00 77 1012.9
20210614011715 69 237 0.0 0.0 0.00 0.00 0.00 77 1012.7
20210614011214 69 270 0.0 1.0 0.00 0.00 0.00 77 1012.5
20210614010713 69 261 1.0 1.0 0.00 0.00 0.00 76 1012.5